Time;durP1;ratioP1;P1;durP2;ratioP2;P2;SDS_P1;SDS_P2;PMS_P1;PMS_P2;Temp;Humidity;BMP_temperature;BMP_pressure;BME280_temperature;BME280_humidity;BME280_pressure;Samples;Min_cycle;Max_cycle;Signal;HPM_P1;HPM_P2
2022/05/31 00:00:46;;;;;;;;;;;9.20;99.90;;;;;;5056479;28;19929;-72
2022/05/31 00:03:13;;;;;;;;;;;9.20;99.90;;;;;;5073966;28;19925;-72
2022/05/31 00:05:44;;;;;;;;;;;9.20;99.90;;;;;;5078110;28;20388;-72
2022/05/31 00:08:16;;;;;;;;;;;9.10;99.90;;;;;;5069054;28;19934;-72
2022/05/31 00:10:48;;;;;;;;;;;9.10;99.90;;;;;;5074516;28;19928;-72
2022/05/31 00:13:19;;;;;;;;;;;9.10;99.90;;;;;;5067385;28;19928;-72
2022/05/31 00:15:51;;;;;;;;;;;9.10;99.90;;;;;;5092205;28;19931;-72
2022/05/31 00:18:23;;;;;;;;;;;9.10;99.90;;;;;;5068001;28;20384;-72
2022/05/31 00:20:54;;;;;;;;;;;9.00;99.90;;;;;;5090050;28;19928;-72
2022/05/31 00:23:26;;;;;;;;;;;8.90;99.90;;;;;;5078889;28;19935;-72
2022/05/31 00:25:57;;;;;;;;;;;8.90;99.90;;;;;;5102838;28;19928;-72
2022/05/31 00:28:29;;;;;;;;;;;8.80;99.90;;;;;;5091501;28;19933;-72
2022/05/31 00:31:01;;;;;;;;;;;8.80;99.90;;;;;;5080331;28;19928;-72
2022/05/31 00:33:29;;;;;;;;;;;8.80;99.90;;;;;;5057657;28;19927;-72
2022/05/31 00:36:01;;;;;;;;;;;8.80;99.90;;;;;;5067078;28;19947;-72
2022/05/31 00:38:32;;;;;;;;;;;8.80;99.90;;;;;;5106628;28;19931;-72
2022/05/31 00:41:24;;;;;;;;;;;8.80;99.90;;;;;;5072022;28;19924;-72
2022/05/31 00:44:06;;;;;;;;;;;8.90;99.90;;;;;;5068226;28;19931;-72
2022/05/31 00:46:41;;;;;;;;;;;8.90;99.90;;;;;;5076499;28;20381;-72
2022/05/31 00:49:14;;;;;;;;;;;8.90;99.90;;;;;;5054454;28;19932;-72
2022/05/31 00:51:48;;;;;;;;;;;8.90;99.90;;;;;;5071464;28;20058;-72
2022/05/31 00:54:22;;;;;;;;;;;8.90;99.90;;;;;;5081822;28;19982;-72
2022/05/31 00:56:54;;;;;;;;;;;8.80;99.90;;;;;;5057624;28;19935;-72
2022/05/31 00:59:28;;;;;;;;;;;8.80;99.90;;;;;;5055398;28;19931;-72
2022/05/31 01:01:59;;;;;;;;;;;8.70;99.90;;;;;;5090737;28;20317;-72
2022/05/31 01:04:34;;;;;;;;;;;8.70;99.90;;;;;;5079888;28;19924;-72
2022/05/31 01:07:06;;;;;;;;;;;8.70;99.90;;;;;;5057374;28;20023;-72
2022/05/31 01:09:38;;;;;;;;;;;8.70;99.90;;;;;;5076465;28;20007;-72
2022/05/31 01:12:36;;;;;;;;;;;8.60;99.90;;;;;;5035321;28;19959;-72
2022/05/31 01:15:41;;;;;;;;;;;8.50;99.90;;;;;;5072899;28;20061;-72
2022/05/31 01:18:32;;;;;;;;;;;8.50;99.90;;;;;;5062960;28;19947;-72
2022/05/31 01:21:22;;;;;;;;;;;8.40;99.90;;;;;;5071425;28;20331;-72
2022/05/31 01:24:20;;;;;;;;;;;8.30;99.90;;;;;;5070584;28;19939;-72
2022/05/31 01:26:59;;;;;;;;;;;8.30;99.90;;;;;;5094404;28;19928;-72
2022/05/31 01:29:33;;;;;;;;;;;8.30;99.90;;;;;;5064303;28;20403;-72
2022/05/31 01:32:06;;;;;;;;;;;8.30;99.90;;;;;;5092141;28;19924;-72
2022/05/31 01:34:58;;;;;;;;;;;8.30;99.90;;;;;;5060545;28;20019;-72
2022/05/31 01:37:48;;;;;;;;;;;8.40;99.90;;;;;;5102328;28;20022;-72
2022/05/31 01:40:26;;;;;;;;;;;8.40;99.90;;;;;;5081319;28;19928;-72
2022/05/31 01:42:53;;;;;;;;;;;8.40;99.90;;;;;;5088227;28;19924;-72
2022/05/31 01:45:26;;;;;;;;;;;8.50;99.90;;;;;;5062752;28;20487;-72
2022/05/31 01:47:59;;;;;;;;;;;8.50;99.90;;;;;;5076244;28;19946;-72
2022/05/31 01:50:31;;;;;;;;;;;8.50;99.90;;;;;;5062876;28;20397;-72
2022/05/31 01:53:04;;;;;;;;;;;8.50;99.90;;;;;;5087184;28;19928;-72
2022/05/31 01:55:40;;;;;;;;;;;8.50;99.90;;;;;;5064382;28;19925;-72
2022/05/31 01:58:08;;;;;;;;;;;8.50;99.90;;;;;;5087420;28;20034;-72
2022/05/31 02:00:40;;;;;;;;;;;8.50;99.90;;;;;;5091387;28;19924;-72
2022/05/31 02:03:13;;;;;;;;;;;8.50;99.90;;;;;;5099912;28;19924;-72
2022/05/31 02:05:49;;;;;;;;;;;8.50;99.90;;;;;;5076419;28;19928;-72
2022/05/31 02:08:19;;;;;;;;;;;8.50;99.90;;;;;;5064235;28;19931;-72
2022/05/31 02:10:51;;;;;;;;;;;8.50;99.90;;;;;;5068893;28;20036;-72
2022/05/31 02:13:27;;;;;;;;;;;8.50;99.90;;;;;;5061298;28;19924;-72
2022/05/31 02:16:21;;;;;;;;;;;8.50;99.90;;;;;;5088688;28;20074;-72
2022/05/31 02:19:26;;;;;;;;;;;8.40;99.90;;;;;;5078193;28;19982;-72
2022/05/31 02:22:03;;;;;;;;;;;8.40;99.90;;;;;;5067652;28;19982;-72
2022/05/31 02:24:35;;;;;;;;;;;8.40;99.90;;;;;;5094064;28;19935;-72
2022/05/31 02:27:07;;;;;;;;;;;8.40;99.90;;;;;;5069510;28;20312;-72
2022/05/31 02:29:40;;;;;;;;;;;8.40;99.90;;;;;;5083557;28;19924;-72
2022/05/31 02:32:12;;;;;;;;;;;8.50;99.90;;;;;;5063756;28;19929;-72
2022/05/31 02:34:46;;;;;;;;;;;8.50;99.90;;;;;;5074281;28;20014;-72
2022/05/31 02:37:15;;;;;;;;;;;8.40;99.90;;;;;;5048242;28;20449;-72
2022/05/31 02:39:47;;;;;;;;;;;8.40;99.90;;;;;;5071079;28;19928;-72
2022/05/31 02:42:19;;;;;;;;;;;8.40;99.90;;;;;;5063679;28;20354;-72
2022/05/31 02:44:46;;;;;;;;;;;8.40;99.90;;;;;;5055627;28;19936;-72
2022/05/31 02:47:19;;;;;;;;;;;8.30;99.90;;;;;;5054640;28;19924;-72
2022/05/31 02:49:51;;;;;;;;;;;8.40;99.90;;;;;;5065612;28;19930;-72
2022/05/31 02:52:17;;;;;;;;;;;8.30;99.90;;;;;;5067932;28;20384;-72
2022/05/31 02:54:49;;;;;;;;;;;8.30;99.90;;;;;;5059804;28;19925;-72
2022/05/31 02:57:20;;;;;;;;;;;8.30;99.90;;;;;;5073083;28;19932;-72
2022/05/31 02:59:58;;;;;;;;;;;8.30;99.90;;;;;;5084091;28;19924;-72
2022/05/31 03:02:48;;;;;;;;;;;8.30;99.90;;;;;;5088551;28;19999;-72
2022/05/31 03:05:38;;;;;;;;;;;8.30;99.90;;;;;;5067522;28;19947;-71
2022/05/31 03:08:11;;;;;;;;;;;8.30;99.90;;;;;;5071732;28;20240;-72
2022/05/31 03:10:54;;;;;;;;;;;8.30;99.90;;;;;;5050994;28;20377;-72
2022/05/31 03:13:27;;;;;;;;;;;8.30;99.90;;;;;;5102944;28;19936;-72
2022/05/31 03:16:00;;;;;;;;;;;8.30;99.90;;;;;;5081919;28;19924;-72
2022/05/31 03:18:38;;;;;;;;;;;8.30;99.90;;;;;;5090697;28;20312;-72
2022/05/31 03:21:12;;;;;;;;;;;8.30;99.90;;;;;;5098134;28;19924;-72
2022/05/31 03:23:47;;;;;;;;;;;8.30;99.90;;;;;;5076018;28;19932;-72
2022/05/31 03:26:15;;;;;;;;;;;8.20;99.90;;;;;;5073812;28;20313;-71
2022/05/31 03:28:47;;;;;;;;;;;8.20;99.90;;;;;;5059999;28;19928;-72
2022/05/31 03:31:15;;;;;;;;;;;8.20;99.90;;;;;;5071348;28;19928;-72
2022/05/31 03:33:41;;;;;;;;;;;8.10;99.90;;;;;;5061113;28;20320;-72
2022/05/31 03:36:14;;;;;;;;;;;8.10;99.90;;;;;;5069826;28;19924;-72
2022/05/31 03:38:54;;;;;;;;;;;8.10;99.90;;;;;;5052154;28;20044;-72
2022/05/31 03:41:27;;;;;;;;;;;8.10;99.90;;;;;;5056627;28;19951;-72
2022/05/31 03:43:53;;;;;;;;;;;8.10;99.90;;;;;;5056220;28;20432;-72
2022/05/31 03:46:37;;;;;;;;;;;8.00;99.90;;;;;;5070776;28;19932;-72
2022/05/31 03:49:27;;;;;;;;;;;8.10;99.90;;;;;;5070114;28;19975;-72
2022/05/31 03:52:05;;;;;;;;;;;8.10;99.90;;;;;;5098603;28;19928;-72
2022/05/31 03:54:40;;;;;;;;;;;8.00;99.90;;;;;;5070441;28;19955;-72
2022/05/31 03:57:13;;;;;;;;;;;8.10;99.90;;;;;;5094430;28;19925;-72
2022/05/31 04:00:18;;;;;;;;;;;8.00;99.90;;;;;;5054282;28;19931;-72
2022/05/31 04:03:12;;;;;;;;;;;8.00;99.90;;;;;;5062455;28;20016;-72
2022/05/31 04:05:46;;;;;;;;;;;8.10;99.90;;;;;;5097385;28;20350;-72
2022/05/31 04:08:12;;;;;;;;;;;8.10;99.90;;;;;;5053208;28;19934;-72
2022/05/31 04:10:45;;;;;;;;;;;8.20;99.90;;;;;;5060153;28;20448;-72
2022/05/31 04:13:17;;;;;;;;;;;8.20;99.90;;;;;;5068411;28;19924;-71
2022/05/31 04:16:15;;;;;;;;;;;8.20;99.90;;;;;;5062976;28;19931;-72
2022/05/31 04:18:54;;;;;;;;;;;8.20;99.90;;;;;;5071060;28;19924;-71
2022/05/31 04:21:25;;;;;;;;;;;8.20;99.90;;;;;;5069579;28;19967;-72
2022/05/31 04:24:01;;;;;;;;;;;8.30;99.90;;;;;;5070214;28;20407;-72
2022/05/31 04:26:37;;;;;;;;;;;8.30;99.90;;;;;;5084172;28;19977;-72
2022/05/31 04:29:23;;;;;;;;;;;8.30;99.90;;;;;;5070451;28;19947;-72
2022/05/31 04:32:14;;;;;;;;;;;8.40;99.90;;;;;;5100274;28;19935;-72
2022/05/31 04:35:01;;;;;;;;;;;8.40;99.90;;;;;;5084991;28;20368;-72
2022/05/31 04:37:32;;;;;;;;;;;8.40;99.90;;;;;;5070520;28;20273;-72
2022/05/31 04:40:09;;;;;;;;;;;8.40;99.90;;;;;;5081779;28;19932;-73
2022/05/31 04:43:10;;;;;;;;;;;8.40;99.90;;;;;;5076628;28;20491;-71
2022/05/31 04:46:18;;;;;;;;;;;8.50;99.90;;;;;;5078517;28;19931;-71
2022/05/31 04:48:56;;;;;;;;;;;8.40;99.90;;;;;;5082154;28;19924;-73
2022/05/31 04:51:30;;;;;;;;;;;8.50;99.90;;;;;;5061387;28;20028;-73
2022/05/31 04:54:04;;;;;;;;;;;8.50;99.90;;;;;;5067664;28;19977;-73
2022/05/31 04:56:54;;;;;;;;;;;8.60;99.90;;;;;;5077399;28;19931;-73
2022/05/31 04:59:27;;;;;;;;;;;8.70;99.90;;;;;;5084489;28;19943;-73
2022/05/31 05:01:58;;;;;;;;;;;8.70;99.90;;;;;;5072421;28;19928;-73
2022/05/31 05:04:47;;;;;;;;;;;8.70;99.90;;;;;;5091330;28;19970;-73
2022/05/31 05:07:34;;;;;;;;;;;8.70;99.90;;;;;;5101518;28;20436;-73
2022/05/31 05:10:03;;;;;;;;;;;8.80;99.90;;;;;;5071851;28;19962;-73
2022/05/31 05:12:40;;;;;;;;;;;8.90;99.90;;;;;;5071709;28;19997;-73
2022/05/31 05:15:46;;;;;;;;;;;9.00;99.90;;;;;;5091751;28;19931;-73
2022/05/31 05:18:13;;;;;;;;;;;9.10;99.90;;;;;;5074012;28;19935;-73
2022/05/31 05:20:45;;;;;;;;;;;9.20;99.90;;;;;;5105081;27;19928;-73
2022/05/31 05:23:17;;;;;;;;;;;9.20;99.90;;;;;;5087921;28;19928;-73
2022/05/31 05:25:49;;;;;;;;;;;9.20;99.90;;;;;;5102983;27;19986;-73
2022/05/31 05:31:35;;;;;;;;;;;9.20;99.90;;;;;;5085329;28;20285;-73
2022/05/31 05:34:25;;;;;;;;;;;9.30;99.90;;;;;;5087369;28;20081;-73
2022/05/31 05:36:59;;;;;;;;;;;9.40;99.90;;;;;;5069908;28;19932;-73
2022/05/31 05:39:30;;;;;;;;;;;9.40;99.90;;;;;;5100522;28;19935;-73
2022/05/31 05:42:20;;;;;;;;;;;9.50;99.90;;;;;;5087956;28;20032;-73
2022/05/31 05:45:10;;;;;;;;;;;9.60;99.90;;;;;;5087029;28;20439;-73
2022/05/31 05:47:42;;;;;;;;;;;9.70;99.90;;;;;;5104199;27;19929;-72
2022/05/31 05:50:14;;;;;;;;;;;9.70;99.90;;;;;;5063456;28;19924;-73
2022/05/31 05:52:58;;;;;;;;;;;9.70;99.90;;;;;;5089038;28;19974;-73
2022/05/31 05:55:56;;;;;;;;;;;9.80;99.90;;;;;;5095447;28;19931;-72
2022/05/31 05:58:46;;;;;;;;;;;9.80;99.90;;;;;;5092900;28;19935;-73
2022/05/31 06:01:58;;;;;;;;;;;9.90;99.90;;;;;;4987804;28;20456;-73
2022/05/31 06:05:07;;;;;;;;;;;10.00;99.90;;;;;;5064650;28;19931;-73
2022/05/31 06:07:42;;;;;;;;;;;10.20;99.90;;;;;;5093287;28;19928;-73
2022/05/31 06:10:13;;;;;;;;;;;10.30;99.90;;;;;;5068937;28;19924;-73
2022/05/31 06:12:52;;;;;;;;;;;10.40;99.90;;;;;;5069360;28;19931;-73
2022/05/31 06:15:27;;;;;;;;;;;10.50;99.90;;;;;;5078302;28;19924;-73
2022/05/31 06:18:00;;;;;;;;;;;10.60;99.90;;;;;;5060342;28;19929;-73
2022/05/31 06:20:29;;;;;;;;;;;10.70;99.90;;;;;;5048637;28;19925;-73
2022/05/31 06:23:01;;;;;;;;;;;10.70;99.90;;;;;;5071366;28;19928;-73
2022/05/31 06:25:33;;;;;;;;;;;10.80;99.90;;;;;;5077201;28;19931;-73
2022/05/31 06:28:30;;;;;;;;;;;10.90;99.90;;;;;;5078139;28;19989;-73
2022/05/31 06:31:02;;;;;;;;;;;10.90;99.90;;;;;;5074711;28;20300;-73
2022/05/31 06:33:34;;;;;;;;;;;10.90;99.90;;;;;;5054399;28;19932;-73
2022/05/31 06:36:07;;;;;;;;;;;11.00;99.90;;;;;;5096479;28;19924;-73
2022/05/31 06:38:39;;;;;;;;;;;11.00;99.90;;;;;;5060716;28;19929;-73
2022/05/31 06:41:06;;;;;;;;;;;11.00;99.90;;;;;;5075882;28;20411;-73
2022/05/31 06:44:10;;;;;;;;;;;11.00;99.90;;;;;;5058276;28;20073;-73
2022/05/31 06:47:00;;;;;;;;;;;11.00;99.90;;;;;;5089761;28;19943;-73
2022/05/31 06:50:04;;;;;;;;;;;10.90;99.90;;;;;;5098345;28;19939;-73
2022/05/31 06:59:09;;;;;;;;;;;11.10;99.90;;;;;;5085778;28;19985;-73
2022/05/31 07:01:41;;;;;;;;;;;11.30;99.90;;;;;;5070975;28;19931;-73
2022/05/31 07:04:13;;;;;;;;;;;11.30;99.90;;;;;;5096612;28;19929;-73
2022/05/31 07:06:45;;;;;;;;;;;11.30;99.90;;;;;;5052851;28;20019;-73
2022/05/31 07:09:35;;;;;;;;;;;11.40;99.90;;;;;;5084995;28;20398;-73
2022/05/31 07:12:16;;;;;;;;;;;11.50;99.90;;;;;;5069777;28;19928;-73
2022/05/31 07:15:06;;;;;;;;;;;11.70;99.90;;;;;;5077484;28;19931;-73
2022/05/31 07:18:15;;;;;;;;;;;11.90;99.90;;;;;;5066052;28;19943;-73
2022/05/31 07:20:47;;;;;;;;;;;12.20;99.90;;;;;;5089676;28;20007;-73
2022/05/31 07:23:19;;;;;;;;;;;12.30;99.90;;;;;;5070783;28;20398;-73
2022/05/31 07:25:54;;;;;;;;;;;12.60;99.90;;;;;;5061315;28;20337;-73
2022/05/31 07:28:28;;;;;;;;;;;12.70;99.90;;;;;;5061202;28;19924;-73
2022/05/31 07:31:01;;;;;;;;;;;12.90;99.90;;;;;;5063227;28;19925;-74
2022/05/31 07:33:42;;;;;;;;;;;13.10;99.90;;;;;;5064048;28;19931;-73
2022/05/31 07:36:15;;;;;;;;;;;13.20;99.90;;;;;;5086774;28;20776;-74
2022/05/31 07:39:01;;;;;;;;;;;13.40;99.90;;;;;;5086052;28;19977;-74
2022/05/31 07:41:33;;;;;;;;;;;13.60;99.90;;;;;;5079841;28;19928;-74
2022/05/31 07:44:01;;;;;;;;;;;13.80;99.90;;;;;;5084089;28;19924;-74
2022/05/31 07:46:29;;;;;;;;;;;13.90;99.90;;;;;;5041538;28;19936;-74
2022/05/31 07:48:57;;;;;;;;;;;14.00;99.90;;;;;;5053864;28;20031;-74
2022/05/31 07:51:44;;;;;;;;;;;14.10;99.90;;;;;;5079012;28;20644;-74
2022/05/31 07:54:21;;;;;;;;;;;14.30;99.90;;;;;;5066184;28;20404;-74
2022/05/31 07:57:06;;;;;;;;;;;14.50;99.90;;;;;;5075816;28;20416;-74
2022/05/31 07:59:56;;;;;;;;;;;14.60;99.90;;;;;;5066014;28;19931;-74
2022/05/31 08:02:46;;;;;;;;;;;14.80;99.90;;;;;;5079427;28;19924;-73
2022/05/31 08:05:13;;;;;;;;;;;15.00;99.90;;;;;;5091018;28;19925;-74
2022/05/31 08:07:44;;;;;;;;;;;15.20;99.90;;;;;;5062666;28;19924;-74
2022/05/31 08:10:20;;;;;;;;;;;15.50;99.90;;;;;;5082352;28;21353;-74
2022/05/31 08:12:51;;;;;;;;;;;15.70;99.90;;;;;;5081235;28;19929;-74
2022/05/31 08:15:23;;;;;;;;;;;15.90;99.90;;;;;;5065706;28;19924;-74
2022/05/31 08:17:55;;;;;;;;;;;16.20;99.90;;;;;;5107991;28;19924;-74
2022/05/31 08:20:26;;;;;;;;;;;16.40;99.90;;;;;;5084850;28;19935;-74
2022/05/31 08:23:00;;;;;;;;;;;16.50;99.90;;;;;;5083721;28;19934;-74
2022/05/31 08:25:33;;;;;;;;;;;16.70;99.90;;;;;;5099603;28;20027;-74
2022/05/31 08:28:05;;;;;;;;;;;16.90;99.90;;;;;;5094175;28;19936;-74
2022/05/31 08:30:37;;;;;;;;;;;17.00;99.90;;;;;;5066635;28;20408;-74
2022/05/31 08:33:09;;;;;;;;;;;17.20;99.90;;;;;;5056089;28;19928;-74
2022/05/31 08:35:40;;;;;;;;;;;17.30;99.90;;;;;;5061886;28;19934;-74
2022/05/31 08:38:09;;;;;;;;;;;17.50;99.90;;;;;;5082976;28;19951;-74
2022/05/31 08:40:56;;;;;;;;;;;17.60;99.90;;;;;;5089333;28;19934;-74
2022/05/31 08:43:44;;;;;;;;;;;17.70;99.90;;;;;;5083673;28;19968;-74
2022/05/31 08:46:19;;;;;;;;;;;17.80;99.90;;;;;;5069789;28;20014;-74
2022/05/31 08:48:57;;;;;;;;;;;18.00;99.90;;;;;;5069888;28;20035;-74
2022/05/31 08:51:54;;;;;;;;;;;18.10;99.90;;;;;;5067575;28;19925;-74
2022/05/31 08:57:43;;;;;;;;;;;18.20;99.90;;;;;;5062465;28;19982;-74
2022/05/31 09:00:17;;;;;;;;;;;18.30;99.90;;;;;;5077887;28;20308;-74
2022/05/31 09:02:55;;;;;;;;;;;18.40;99.90;;;;;;5111578;27;19924;-74
2022/05/31 09:05:28;;;;;;;;;;;18.60;99.90;;;;;;5096797;28;19924;-74
2022/05/31 09:08:21;;;;;;;;;;;18.70;99.90;;;;;;5094493;28;19924;-74
2022/05/31 09:11:01;;;;;;;;;;;18.80;99.90;;;;;;5062169;28;19951;-74
2022/05/31 09:13:46;;;;;;;;;;;18.90;99.90;;;;;;5049619;28;19932;-74
2022/05/31 09:16:29;;;;;;;;;;;19.00;99.90;;;;;;5065798;28;19931;-75
2022/05/31 09:18:58;;;;;;;;;;;19.20;99.90;;;;;;5056077;28;19928;-74
2022/05/31 09:21:37;;;;;;;;;;;19.20;99.90;;;;;;5060483;28;19928;-74
2022/05/31 09:24:19;;;;;;;;;;;19.30;99.90;;;;;;5087812;28;20322;-74
2022/05/31 09:26:57;;;;;;;;;;;19.40;99.90;;;;;;5039584;28;20656;-74
2022/05/31 09:29:28;;;;;;;;;;;19.50;99.90;;;;;;5075859;28;19924;-74
2022/05/31 09:32:12;;;;;;;;;;;19.70;99.90;;;;;;5096148;28;19925;-74
2022/05/31 09:35:04;;;;;;;;;;;19.80;99.90;;;;;;5082170;28;19924;-74
2022/05/31 09:37:45;;;;;;;;;;;19.80;99.90;;;;;;5084232;28;19927;-73
2022/05/31 09:40:31;;;;;;;;;;;19.80;99.90;;;;;;5054858;28;19931;-74
2022/05/31 09:43:06;;;;;;;;;;;19.90;99.90;;;;;;5071236;28;20388;-74
2022/05/31 09:45:40;;;;;;;;;;;20.00;99.90;;;;;;5057285;28;20302;-74
2022/05/31 09:48:12;;;;;;;;;;;20.20;99.90;;;;;;5082521;28;19935;-74
2022/05/31 09:50:38;;;;;;;;;;;20.30;99.90;;;;;;5084904;28;19925;-74
2022/05/31 09:59:25;;;;;;;;;;;20.30;99.90;;;;;;5060539;28;19978;-74
2022/05/31 10:02:42;;;;;;;;;;;20.40;99.30;;;;;;5085345;28;19931;-74
2022/05/31 10:05:13;;;;;;;;;;;20.50;97.80;;;;;;5055417;28;19924;-74
2022/05/31 10:07:46;;;;;;;;;;;20.60;95.60;;;;;;5066601;28;20389;-74
2022/05/31 10:10:24;;;;;;;;;;;20.70;97.00;;;;;;5064281;28;19928;-74
2022/05/31 10:12:57;;;;;;;;;;;20.70;95.70;;;;;;5064454;28;19935;-74
2022/05/31 10:15:44;;;;;;;;;;;20.80;95.30;;;;;;5070953;28;19923;-74
2022/05/31 10:18:23;;;;;;;;;;;21.00;95.00;;;;;;5092830;28;20327;-74
2022/05/31 10:21:01;;;;;;;;;;;21.10;94.90;;;;;;5102718;27;20019;-74
2022/05/31 10:23:43;;;;;;;;;;;21.20;93.80;;;;;;5092226;27;20427;-74
2022/05/31 10:26:25;;;;;;;;;;;21.20;94.20;;;;;;5093768;28;19931;-74
2022/05/31 10:29:28;;;;;;;;;;;21.20;92.80;;;;;;5100449;28;19931;-74
2022/05/31 10:32:22;;;;;;;;;;;21.30;93.60;;;;;;5070236;28;19928;-74
2022/05/31 10:35:13;;;;;;;;;;;21.40;92.40;;;;;;5066265;28;19936;-74
2022/05/31 10:37:59;;;;;;;;;;;21.50;92.00;;;;;;5098027;28;19932;-74
2022/05/31 10:40:32;;;;;;;;;;;21.60;91.80;;;;;;5086443;28;19935;-74
2022/05/31 10:43:01;;;;;;;;;;;21.50;90.90;;;;;;5065895;28;19935;-74
2022/05/31 10:45:33;;;;;;;;;;;21.50;90.60;;;;;;5059811;28;19974;-74
2022/05/31 10:48:05;;;;;;;;;;;21.60;90.90;;;;;;5068014;28;19928;-73
2022/05/31 10:50:50;;;;;;;;;;;21.50;88.80;;;;;;5086514;28;19935;-73
2022/05/31 10:53:22;;;;;;;;;;;21.60;91.20;;;;;;5067202;28;19928;-74
2022/05/31 10:56:09;;;;;;;;;;;21.80;91.10;;;;;;5102129;28;20373;-74
2022/05/31 10:58:42;;;;;;;;;;;21.80;89.00;;;;;;5084570;28;19943;-74
2022/05/31 11:01:19;;;;;;;;;;;21.90;89.90;;;;;;5094104;28;19938;-74
2022/05/31 11:04:03;;;;;;;;;;;21.80;91.20;;;;;;5101756;28;19928;-74
2022/05/31 11:06:35;;;;;;;;;;;21.80;91.50;;;;;;5069765;28;19924;-74
2022/05/31 11:12:08;;;;;;;;;;;21.60;90.50;;;;;;5094153;28;19928;-73
2022/05/31 11:14:49;;;;;;;;;;;21.60;89.80;;;;;;5072513;28;20288;-74
2022/05/31 11:17:21;;;;;;;;;;;21.80;87.50;;;;;;5086504;28;19935;-74
2022/05/31 11:20:01;;;;;;;;;;;21.90;86.70;;;;;;5074238;28;19932;-74
2022/05/31 11:22:38;;;;;;;;;;;21.90;86.00;;;;;;5072788;28;20031;-73
2022/05/31 11:25:17;;;;;;;;;;;21.90;85.70;;;;;;5072621;28;19923;-74
2022/05/31 11:27:55;;;;;;;;;;;21.90;82.40;;;;;;5079279;28;19932;-74
2022/05/31 11:30:29;;;;;;;;;;;22.00;85.90;;;;;;5091807;28;20014;-74
2022/05/31 11:33:17;;;;;;;;;;;22.00;81.60;;;;;;5060019;28;19932;-74
2022/05/31 11:35:54;;;;;;;;;;;21.90;83.80;;;;;;5083948;28;20403;-74
2022/05/31 11:38:31;;;;;;;;;;;22.00;82.60;;;;;;5079662;28;20035;-74
2022/05/31 11:41:18;;;;;;;;;;;22.00;81.90;;;;;;5103582;28;19924;-74
2022/05/31 11:44:04;;;;;;;;;;;22.10;86.90;;;;;;5083209;28;19928;-74
2022/05/31 11:46:43;;;;;;;;;;;22.30;84.00;;;;;;5092244;28;19935;-74
2022/05/31 11:49:18;;;;;;;;;;;22.80;87.10;;;;;;5092370;28;19932;-74
2022/05/31 11:51:49;;;;;;;;;;;23.00;79.40;;;;;;5081114;28;19932;-74
2022/05/31 11:54:24;;;;;;;;;;;22.80;78.40;;;;;;5075679;28;20342;-74
2022/05/31 11:56:51;;;;;;;;;;;22.80;80.10;;;;;;5081933;28;20412;-74
2022/05/31 11:59:26;;;;;;;;;;;22.90;80.80;;;;;;5073120;28;21116;-74
2022/05/31 12:02:03;;;;;;;;;;;22.80;80.10;;;;;;5094118;28;20015;-74
2022/05/31 12:04:34;;;;;;;;;;;22.80;79.20;;;;;;5105600;27;19928;-74
2022/05/31 12:07:12;;;;;;;;;;;22.80;76.70;;;;;;5096002;28;19936;-74
2022/05/31 12:09:56;;;;;;;;;;;22.70;78.80;;;;;;5076403;28;19928;-74
2022/05/31 12:12:30;;;;;;;;;;;22.40;76.30;;;;;;5075667;28;19924;-74
2022/05/31 12:15:07;;;;;;;;;;;22.40;79.60;;;;;;5080087;28;20015;-74
2022/05/31 12:18:06;;;;;;;;;;;22.20;82.40;;;;;;5074464;28;19930;-74
2022/05/31 12:20:43;;;;;;;;;;;22.30;78.10;;;;;;5070349;28;19932;-74
2022/05/31 12:23:18;;;;;;;;;;;22.40;78.60;;;;;;5089988;28;19924;-74
2022/05/31 12:25:52;;;;;;;;;;;22.50;78.90;;;;;;5070710;28;20427;-74
2022/05/31 12:28:32;;;;;;;;;;;22.50;82.00;;;;;;5087591;28;19943;-74
2022/05/31 12:31:07;;;;;;;;;;;22.60;79.30;;;;;;5083445;28;19927;-73
2022/05/31 12:36:20;;;;;;;;;;;22.60;79.00;;;;;;5074775;28;19924;-74
2022/05/31 12:39:05;;;;;;;;;;;22.60;78.70;;;;;;5072306;28;19930;-74
2022/05/31 12:41:37;;;;;;;;;;;22.50;77.40;;;;;;5059564;28;19924;-74
2022/05/31 12:44:08;;;;;;;;;;;22.50;77.40;;;;;;5091320;28;19924;-74
2022/05/31 12:46:36;;;;;;;;;;;22.50;79.20;;;;;;5090934;28;19932;-74
2022/05/31 12:49:10;;;;;;;;;;;22.50;81.60;;;;;;5088414;28;19936;-74
2022/05/31 12:51:38;;;;;;;;;;;22.30;76.30;;;;;;5074125;28;19966;-74
2022/05/31 12:54:06;;;;;;;;;;;22.10;81.00;;;;;;5089429;28;20563;-73
2022/05/31 12:56:34;;;;;;;;;;;22.10;77.80;;;;;;5072217;28;19931;-74
2022/05/31 12:59:06;;;;;;;;;;;22.00;77.50;;;;;;5094745;28;19935;-74
2022/05/31 13:01:44;;;;;;;;;;;21.90;78.10;;;;;;5109574;27;19970;-74
2022/05/31 13:04:26;;;;;;;;;;;21.90;79.80;;;;;;5056823;28;20388;-74
2022/05/31 13:07:04;;;;;;;;;;;21.70;78.70;;;;;;5073402;28;19924;-74
2022/05/31 13:09:32;;;;;;;;;;;21.60;80.00;;;;;;5073650;28;19939;-74
2022/05/31 13:20:33;;;;;;;;;;;21.50;80.20;;;;;;5088949;28;19931;-74
2022/05/31 13:23:11;;;;;;;;;;;21.40;74.30;;;;;;5090778;28;19928;-74
2022/05/31 13:25:41;;;;;;;;;;;21.20;76.90;;;;;;5054178;28;19936;-73
2022/05/31 13:28:07;;;;;;;;;;;20.80;75.30;;;;;;5074229;28;19931;-74
2022/05/31 13:30:42;;;;;;;;;;;20.50;77.20;;;;;;5086035;28;19924;-74
2022/05/31 13:33:15;;;;;;;;;;;20.10;78.60;;;;;;5084107;28;19931;-74
2022/05/31 13:35:54;;;;;;;;;;;19.80;78.10;;;;;;5104889;28;19935;-74
2022/05/31 13:38:28;;;;;;;;;;;19.70;79.80;;;;;;5087589;28;19929;-74
2022/05/31 13:41:01;;;;;;;;;;;19.70;78.90;;;;;;5078586;28;19927;-74
2022/05/31 13:43:38;;;;;;;;;;;19.70;80.20;;;;;;5101052;27;19936;-74
2022/05/31 13:46:22;;;;;;;;;;;19.70;80.00;;;;;;5067012;28;20397;-74
2022/05/31 13:48:56;;;;;;;;;;;19.80;81.30;;;;;;5075734;28;20324;-74
2022/05/31 13:51:31;;;;;;;;;;;19.80;80.90;;;;;;5096000;28;19932;-74
2022/05/31 13:54:06;;;;;;;;;;;19.90;78.70;;;;;;5080221;28;19928;-73
2022/05/31 13:56:38;;;;;;;;;;;19.80;80.90;;;;;;5078428;28;19928;-73
2022/05/31 13:59:10;;;;;;;;;;;19.80;81.60;;;;;;5097770;28;20011;-73
2022/05/31 14:01:39;;;;;;;;;;;19.80;82.20;;;;;;5084163;28;19924;-73
2022/05/31 14:04:11;;;;;;;;;;;19.70;83.80;;;;;;5055172;28;19960;-73
2022/05/31 14:06:42;;;;;;;;;;;19.40;89.70;;;;;;5078311;28;19928;-73
2022/05/31 14:09:22;;;;;;;;;;;19.00;90.40;;;;;;5068819;28;19935;-73
2022/05/31 14:11:57;;;;;;;;;;;18.90;92.80;;;;;;5075808;28;20339;-73
2022/05/31 14:14:24;;;;;;;;;;;19.00;93.90;;;;;;5056712;28;19935;-72
2022/05/31 14:16:57;;;;;;;;;;;19.10;93.20;;;;;;5084079;28;19928;-72
2022/05/31 14:19:31;;;;;;;;;;;19.10;93.00;;;;;;5077720;28;20403;-73
2022/05/31 14:22:22;;;;;;;;;;;19.20;94.10;;;;;;5061094;28;19932;-72
2022/05/31 14:24:51;;;;;;;;;;;19.30;94.10;;;;;;5082725;28;19928;-73
2022/05/31 14:27:24;;;;;;;;;;;19.30;94.40;;;;;;5085816;28;19932;-73
2022/05/31 14:29:58;;;;;;;;;;;19.20;92.10;;;;;;5067055;28;19928;-72
2022/05/31 14:32:46;;;;;;;;;;;19.10;93.00;;;;;;5081089;28;19929;-73
2022/05/31 14:35:26;;;;;;;;;;;19.00;93.40;;;;;;5062780;28;19931;-73
2022/05/31 14:37:57;;;;;;;;;;;18.90;94.00;;;;;;5087572;28;19931;-72
2022/05/31 14:40:34;;;;;;;;;;;18.70;93.70;;;;;;5068662;28;20568;-73
2022/05/31 14:43:12;;;;;;;;;;;18.60;94.90;;;;;;5070789;28;19930;-73
2022/05/31 14:45:45;;;;;;;;;;;18.60;95.30;;;;;;5099097;28;19935;-73
2022/05/31 14:48:36;;;;;;;;;;;18.50;95.80;;;;;;5063952;28;19929;-73
2022/05/31 14:51:20;;;;;;;;;;;18.70;97.10;;;;;;5084166;28;20316;-73
2022/05/31 14:53:53;;;;;;;;;;;19.00;96.00;;;;;;5055339;28;19924;-73
2022/05/31 14:56:27;;;;;;;;;;;19.70;96.60;;;;;;5071438;28;20376;-72
2022/05/31 14:59:00;;;;;;;;;;;19.90;95.00;;;;;;5054566;28;19932;-72
2022/05/31 15:01:45;;;;;;;;;;;19.60;93.90;;;;;;5069597;28;19924;-73
2022/05/31 15:04:22;;;;;;;;;;;19.40;94.00;;;;;;5069843;28;20414;-72
2022/05/31 15:07:17;;;;;;;;;;;19.30;94.90;;;;;;5069830;28;19938;-72
2022/05/31 15:10:08;;;;;;;;;;;19.30;94.50;;;;;;5087236;28;19924;-72
2022/05/31 15:18:56;;;;;;;;;;;19.20;95.40;;;;;;5059482;28;19956;-72
2022/05/31 15:19:02;;;;;;;;;;;19.10;95.30;;;;;;5068007;28;19928;-72
2022/05/31 15:21:35;;;;;;;;;;;19.00;95.80;;;;;;5085525;28;19931;-72
2022/05/31 15:24:21;;;;;;;;;;;19.00;95.20;;;;;;5083018;28;19928;-72
2022/05/31 15:26:52;;;;;;;;;;;19.00;95.40;;;;;;5061761;28;20483;-72
2022/05/31 15:29:20;;;;;;;;;;;19.00;94.70;;;;;;5082945;28;19938;-72
2022/05/31 15:31:51;;;;;;;;;;;19.10;94.80;;;;;;5047859;28;20289;-72
2022/05/31 15:34:23;;;;;;;;;;;19.10;95.00;;;;;;5086879;28;19936;-72
2022/05/31 15:36:57;;;;;;;;;;;19.10;95.30;;;;;;5087916;28;20396;-72
2022/05/31 15:39:29;;;;;;;;;;;19.10;96.00;;;;;;5061045;28;20007;-72
2022/05/31 15:42:01;;;;;;;;;;;19.00;96.70;;;;;;5084736;28;19932;-72
2022/05/31 15:44:27;;;;;;;;;;;18.80;97.00;;;;;;5080142;28;19928;-72
2022/05/31 15:46:59;;;;;;;;;;;18.70;97.60;;;;;;5069444;28;19924;-72
2022/05/31 15:49:26;;;;;;;;;;;18.60;98.00;;;;;;5087640;28;19932;-72
2022/05/31 15:51:53;;;;;;;;;;;18.70;98.90;;;;;;5069003;28;20399;-72
2022/05/31 15:54:25;;;;;;;;;;;18.70;99.00;;;;;;5083520;28;19924;-72
2022/05/31 15:56:52;;;;;;;;;;;18.60;98.60;;;;;;5064062;28;20486;-72